sensor_id;sensor_type;location;lat;lon;timestamp;P1;durP1;ratioP1;P2;durP2;ratioP2
4078;SDS011;2054;47.858;11.156;2024-01-15T03:46:56;11.40;;;4.85;;
4078;SDS011;2054;47.858;11.156;2024-01-15T03:49:24;14.77;;;5.63;;
4078;SDS011;2054;47.858;11.156;2024-01-15T03:51:51;12.10;;;3.95;;
4078;SDS011;2054;47.858;11.156;2024-01-15T03:54:18;11.00;;;5.07;;
4078;SDS011;2054;47.858;11.156;2024-01-15T03:56:47;8.00;;;3.92;;
4078;SDS011;2054;47.858;11.156;2024-01-15T03:59:14;10.45;;;4.35;;
4078;SDS011;2054;47.858;11.156;2024-01-15T04:01:45;6.45;;;2.78;;
4078;SDS011;2054;47.858;11.156;2024-01-15T04:04:16;10.02;;;4.50;;
4078;SDS011;2054;47.858;11.156;2024-01-15T04:06:44;9.05;;;4.40;;
4078;SDS011;2054;47.858;11.156;2024-01-15T04:09:11;7.70;;;3.50;;
4078;SDS011;2054;47.858;11.156;2024-01-15T04:11:39;9.20;;;4.43;;
4078;SDS011;2054;47.858;11.156;2024-01-15T04:14:06;11.20;;;4.63;;
4078;SDS011;2054;47.858;11.156;2024-01-15T04:16:34;7.20;;;3.65;;
4078;SDS011;2054;47.858;11.156;2024-01-15T04:19:01;5.82;;;3.33;;
4078;SDS011;2054;47.858;11.156;2024-01-15T04:21:30;9.60;;;4.07;;
4078;SDS011;2054;47.858;11.156;2024-01-15T04:23:57;8.95;;;4.03;;
4078;SDS011;2054;47.858;11.156;2024-01-15T04:26:24;6.75;;;3.63;;
4078;SDS011;2054;47.858;11.156;2024-01-15T04:28:51;9.70;;;4.45;;
4078;SDS011;2054;47.858;11.156;2024-01-15T04:31:22;8.63;;;3.85;;
4078;SDS011;2054;47.858;11.156;2024-01-15T04:33:49;7.60;;;3.17;;
4078;SDS011;2054;47.858;11.156;2024-01-15T04:36:17;5.72;;;3.22;;
4078;SDS011;2054;47.858;11.156;2024-01-15T04:38:45;7.60;;;3.88;;
4078;SDS011;2054;47.858;11.156;2024-01-15T04:41:13;7.63;;;3.63;;
4078;SDS011;2054;47.858;11.156;2024-01-15T04:43:41;8.07;;;3.40;;
4078;SDS011;2054;47.858;11.156;2024-01-15T04:46:08;12.13;;;4.72;;
4078;SDS011;2054;47.858;11.156;2024-01-15T04:48:36;9.75;;;4.30;;
4078;SDS011;2054;47.858;11.156;2024-01-15T04:51:04;7.38;;;4.15;;
4078;SDS011;2054;47.858;11.156;2024-01-15T04:53:31;7.82;;;3.72;;
4078;SDS011;2054;47.858;11.156;2024-01-15T04:56:00;8.10;;;4.55;;
4078;SDS011;2054;47.858;11.156;2024-01-15T04:58:28;8.35;;;3.47;;
4078;SDS011;2054;47.858;11.156;2024-01-15T05:00:55;6.60;;;3.15;;
4078;SDS011;2054;47.858;11.156;2024-01-15T05:03:22;6.78;;;2.80;;
4078;SDS011;2054;47.858;11.156;2024-01-15T05:05:50;6.82;;;2.67;;
4078;SDS011;2054;47.858;11.156;2024-01-15T05:08:17;6.93;;;3.00;;
4078;SDS011;2054;47.858;11.156;2024-01-15T05:10:44;7.72;;;3.83;;
4078;SDS011;2054;47.858;11.156;2024-01-15T05:13:14;8.18;;;3.78;;
4078;SDS011;2054;47.858;11.156;2024-01-15T05:15:41;8.02;;;3.83;;
4078;SDS011;2054;47.858;11.156;2024-01-15T05:18:08;4.35;;;2.50;;
4078;SDS011;2054;47.858;11.156;2024-01-15T05:20:35;13.55;;;4.20;;
4078;SDS011;2054;47.858;11.156;2024-01-15T05:23:03;10.80;;;4.22;;
4078;SDS011;2054;47.858;11.156;2024-01-15T05:25:30;6.32;;;3.50;;
4078;SDS011;2054;47.858;11.156;2024-01-15T05:27:58;10.38;;;4.13;;
4078;SDS011;2054;47.858;11.156;2024-01-15T05:30:26;8.63;;;4.00;;
4078;SDS011;2054;47.858;11.156;2024-01-15T05:32:54;7.53;;;3.28;;
4078;SDS011;2054;47.858;11.156;2024-01-15T05:35:22;7.38;;;3.40;;
4078;SDS011;2054;47.858;11.156;2024-01-15T05:37:49;7.22;;;3.30;;
4078;SDS011;2054;47.858;11.156;2024-01-15T05:40:17;6.68;;;3.22;;
4078;SDS011;2054;47.858;11.156;2024-01-15T05:42:44;6.80;;;2.72;;
4078;SDS011;2054;47.858;11.156;2024-01-15T05:45:11;7.60;;;3.60;;
4078;SDS011;2054;47.858;11.156;2024-01-15T05:47:40;7.65;;;3.80;;
4078;SDS011;2054;47.858;11.156;2024-01-15T05:50:08;7.32;;;3.30;;
4078;SDS011;2054;47.858;11.156;2024-01-15T05:52:36;7.22;;;3.53;;
4078;SDS011;2054;47.858;11.156;2024-01-15T05:55:04;3.92;;;2.47;;
4078;SDS011;2054;47.858;11.156;2024-01-15T05:57:31;6.38;;;3.28;;
4078;SDS011;2054;47.858;11.156;2024-01-15T05:59:59;6.82;;;3.50;;
4078;SDS011;2054;47.858;11.156;2024-01-15T06:02:27;6.93;;;3.35;;
4078;SDS011;2054;47.858;11.156;2024-01-15T06:04:56;4.57;;;2.33;;
4078;SDS011;2054;47.858;11.156;2024-01-15T06:07:24;6.60;;;3.13;;
4078;SDS011;2054;47.858;11.156;2024-01-15T06:09:51;6.32;;;3.10;;
4078;SDS011;2054;47.858;11.156;2024-01-15T06:12:18;5.75;;;3.08;;
4078;SDS011;2054;47.858;11.156;2024-01-15T06:14:45;7.45;;;3.50;;
4078;SDS011;2054;47.858;11.156;2024-01-15T06:17:13;5.38;;;3.38;;
4078;SDS011;2054;47.858;11.156;2024-01-15T06:19:40;5.00;;;2.47;;
4078;SDS011;2054;47.858;11.156;2024-01-15T06:22:09;5.35;;;3.10;;
4078;SDS011;2054;47.858;11.156;2024-01-15T06:24:36;7.45;;;3.50;;
4078;SDS011;2054;47.858;11.156;2024-01-15T06:27:03;7.07;;;3.80;;
4078;SDS011;2054;47.858;11.156;2024-01-15T06:29:31;9.80;;;4.65;;
4078;SDS011;2054;47.858;11.156;2024-01-15T06:31:59;8.05;;;3.00;;
4078;SDS011;2054;47.858;11.156;2024-01-15T06:34:26;5.00;;;2.83;;
4078;SDS011;2054;47.858;11.156;2024-01-15T06:36:53;6.68;;;3.28;;
4078;SDS011;2054;47.858;11.156;2024-01-15T06:39:22;7.30;;;3.45;;
4078;SDS011;2054;47.858;11.156;2024-01-15T06:41:49;10.18;;;3.95;;
4078;SDS011;2054;47.858;11.156;2024-01-15T06:44:17;6.47;;;3.10;;
4078;SDS011;2054;47.858;11.156;2024-01-15T06:46:46;8.02;;;3.67;;
4078;SDS011;2054;47.858;11.156;2024-01-15T06:49:13;5.88;;;3.20;;
4078;SDS011;2054;47.858;11.156;2024-01-15T06:51:41;10.40;;;4.65;;
4078;SDS011;2054;47.858;11.156;2024-01-15T06:54:08;8.27;;;4.20;;
4078;SDS011;2054;47.858;11.156;2024-01-15T06:56:37;8.52;;;4.40;;
4078;SDS011;2054;47.858;11.156;2024-01-15T06:59:04;6.18;;;3.42;;
4078;SDS011;2054;47.858;11.156;2024-01-15T07:01:31;6.28;;;3.75;;
4078;SDS011;2054;47.858;11.156;2024-01-15T07:03:59;5.80;;;2.88;;
4078;SDS011;2054;47.858;11.156;2024-01-15T07:06:26;6.40;;;3.58;;
4078;SDS011;2054;47.858;11.156;2024-01-15T07:08:53;8.70;;;4.47;;
4078;SDS011;2054;47.858;11.156;2024-01-15T07:11:20;8.07;;;3.67;;
4078;SDS011;2054;47.858;11.156;2024-01-15T07:13:49;6.13;;;3.65;;
4078;SDS011;2054;47.858;11.156;2024-01-15T07:16:16;6.85;;;3.17;;
4078;SDS011;2054;47.858;11.156;2024-01-15T07:18:43;7.57;;;3.53;;
4078;SDS011;2054;47.858;11.156;2024-01-15T07:21:11;7.00;;;3.20;;
4078;SDS011;2054;47.858;11.156;2024-01-15T07:23:38;6.65;;;3.40;;
4078;SDS011;2054;47.858;11.156;2024-01-15T07:26:05;6.03;;;3.13;;
4078;SDS011;2054;47.858;11.156;2024-01-15T07:28:33;6.05;;;3.65;;
4078;SDS011;2054;47.858;11.156;2024-01-15T07:31:02;6.60;;;3.22;;
4078;SDS011;2054;47.858;11.156;2024-01-15T07:33:31;5.07;;;2.85;;
4078;SDS011;2054;47.858;11.156;2024-01-15T07:35:58;7.10;;;3.47;;
4078;SDS011;2054;47.858;11.156;2024-01-15T07:38:27;5.45;;;3.38;;
4078;SDS011;2054;47.858;11.156;2024-01-15T07:40:55;12.40;;;4.78;;
4078;SDS011;2054;47.858;11.156;2024-01-15T07:43:22;6.65;;;3.58;;
4078;SDS011;2054;47.858;11.156;2024-01-15T07:45:49;4.30;;;2.55;;
4078;SDS011;2054;47.858;11.156;2024-01-15T07:48:18;7.00;;;3.22;;
4078;SDS011;2054;47.858;11.156;2024-01-15T07:50:45;7.53;;;3.55;;
4078;SDS011;2054;47.858;11.156;2024-01-15T07:53:12;8.07;;;3.47;;
4078;SDS011;2054;47.858;11.156;2024-01-15T07:55:40;6.15;;;3.17;;
4078;SDS011;2054;47.858;11.156;2024-01-15T07:58:07;6.38;;;3.50;;
4078;SDS011;2054;47.858;11.156;2024-01-15T08:00:34;9.90;;;3.70;;
4078;SDS011;2054;47.858;11.156;2024-01-15T08:03:01;7.47;;;3.72;;
4078;SDS011;2054;47.858;11.156;2024-01-15T08:05:30;6.53;;;3.50;;
4078;SDS011;2054;47.858;11.156;2024-01-15T08:07:57;5.53;;;3.20;;
4078;SDS011;2054;47.858;11.156;2024-01-15T08:10:24;7.38;;;3.72;;
4078;SDS011;2054;47.858;11.156;2024-01-15T08:12:52;8.45;;;3.78;;
4078;SDS011;2054;47.858;11.156;2024-01-15T08:15:19;9.27;;;4.20;;
4078;SDS011;2054;47.858;11.156;2024-01-15T08:17:46;7.18;;;3.05;;
4078;SDS011;2054;47.858;11.156;2024-01-15T08:20:13;8.80;;;3.63;;
4078;SDS011;2054;47.858;11.156;2024-01-15T08:22:43;9.85;;;4.00;;
4078;SDS011;2054;47.858;11.156;2024-01-15T08:25:10;7.80;;;3.42;;
4078;SDS011;2054;47.858;11.156;2024-01-15T08:27:38;6.82;;;3.90;;
4078;SDS011;2054;47.858;11.156;2024-01-15T08:30:06;7.30;;;3.63;;
4078;SDS011;2054;47.858;11.156;2024-01-15T08:32:33;8.02;;;3.50;;
4078;SDS011;2054;47.858;11.156;2024-01-15T08:35:06;8.32;;;4.57;;
4078;SDS011;2054;47.858;11.156;2024-01-15T08:37:33;10.25;;;4.22;;
4078;SDS011;2054;47.858;11.156;2024-01-15T08:40:03;8.25;;;4.38;;
4078;SDS011;2054;47.858;11.156;2024-01-15T08:42:30;8.43;;;4.13;;
4078;SDS011;2054;47.858;11.156;2024-01-15T08:44:57;8.27;;;4.10;;
4078;SDS011;2054;47.858;11.156;2024-01-15T08:47:25;8.02;;;4.07;;
4078;SDS011;2054;47.858;11.156;2024-01-15T08:49:52;9.57;;;3.78;;
4078;SDS011;2054;47.858;11.156;2024-01-15T08:52:20;8.68;;;3.70;;
4078;SDS011;2054;47.858;11.156;2024-01-15T08:54:47;8.57;;;3.97;;
4078;SDS011;2054;47.858;11.156;2024-01-15T08:57:16;8.90;;;4.10;;
4078;SDS011;2054;47.858;11.156;2024-01-15T08:59:43;9.15;;;3.95;;
4078;SDS011;2054;47.858;11.156;2024-01-15T09:02:11;9.43;;;4.35;;
4078;SDS011;2054;47.858;11.156;2024-01-15T09:04:38;9.73;;;3.80;;
4078;SDS011;2054;47.858;11.156;2024-01-15T09:07:05;7.95;;;3.83;;
4078;SDS011;2054;47.858;11.156;2024-01-15T09:09:33;9.80;;;4.40;;
4078;SDS011;2054;47.858;11.156;2024-01-15T09:12:00;4.68;;;2.40;;
4078;SDS011;2054;47.858;11.156;2024-01-15T09:14:29;10.32;;;3.42;;
4078;SDS011;2054;47.858;11.156;2024-01-15T09:16:56;6.97;;;3.63;;
4078;SDS011;2054;47.858;11.156;2024-01-15T09:19:23;8.82;;;4.00;;
4078;SDS011;2054;47.858;11.156;2024-01-15T09:21:51;7.88;;;4.35;;
4078;SDS011;2054;47.858;11.156;2024-01-15T09:24:18;6.70;;;3.30;;
4078;SDS011;2054;47.858;11.156;2024-01-15T09:26:45;10.45;;;3.95;;
4078;SDS011;2054;47.858;11.156;2024-01-15T09:29:12;9.93;;;3.90;;
4078;SDS011;2054;47.858;11.156;2024-01-15T09:31:42;9.60;;;4.40;;
4078;SDS011;2054;47.858;11.156;2024-01-15T09:34:09;5.88;;;3.10;;
4078;SDS011;2054;47.858;11.156;2024-01-15T09:36:38;8.48;;;4.32;;
4078;SDS011;2054;47.858;11.156;2024-01-15T09:39:07;9.70;;;3.95;;
4078;SDS011;2054;47.858;11.156;2024-01-15T09:41:36;7.65;;;3.97;;
4078;SDS011;2054;47.858;11.156;2024-01-15T09:44:03;9.73;;;4.25;;
4078;SDS011;2054;47.858;11.156;2024-01-15T09:46:32;7.88;;;4.07;;
4078;SDS011;2054;47.858;11.156;2024-01-15T09:49:01;10.38;;;4.00;;
4078;SDS011;2054;47.858;11.156;2024-01-15T09:51:31;8.15;;;4.32;;
4078;SDS011;2054;47.858;11.156;2024-01-15T09:53:58;8.98;;;4.10;;
4078;SDS011;2054;47.858;11.156;2024-01-15T09:56:25;9.40;;;4.13;;
4078;SDS011;2054;47.858;11.156;2024-01-15T09:58:53;7.55;;;3.63;;
4078;SDS011;2054;47.858;11.156;2024-01-15T10:01:22;7.20;;;3.30;;
4078;SDS011;2054;47.858;11.156;2024-01-15T10:03:50;8.65;;;4.20;;
4078;SDS011;2054;47.858;11.156;2024-01-15T10:06:19;7.22;;;3.78;;
4078;SDS011;2054;47.858;11.156;2024-01-15T10:08:49;8.73;;;4.22;;
4078;SDS011;2054;47.858;11.156;2024-01-15T10:11:16;8.70;;;4.03;;
4078;SDS011;2054;47.858;11.156;2024-01-15T10:13:43;10.27;;;4.25;;
4078;SDS011;2054;47.858;11.156;2024-01-15T10:16:11;8.23;;;4.28;;
4078;SDS011;2054;47.858;11.156;2024-01-15T10:18:38;8.60;;;4.28;;
4078;SDS011;2054;47.858;11.156;2024-01-15T10:21:06;12.88;;;5.07;;
4078;SDS011;2054;47.858;11.156;2024-01-15T10:23:34;11.88;;;4.82;;
4078;SDS011;2054;47.858;11.156;2024-01-15T10:26:02;9.57;;;4.80;;
4078;SDS011;2054;47.858;11.156;2024-01-15T10:28:30;13.48;;;5.30;;
4078;SDS011;2054;47.858;11.156;2024-01-15T10:30:57;16.42;;;7.97;;
4078;SDS011;2054;47.858;11.156;2024-01-15T10:33:25;11.68;;;6.07;;
4078;SDS011;2054;47.858;11.156;2024-01-15T10:35:53;12.05;;;6.25;;
4078;SDS011;2054;47.858;11.156;2024-01-15T10:38:21;9.38;;;4.70;;
4078;SDS011;2054;47.858;11.156;2024-01-15T10:40:52;13.52;;;6.63;;
4078;SDS011;2054;47.858;11.156;2024-01-15T10:43:19;11.48;;;6.07;;
4078;SDS011;2054;47.858;11.156;2024-01-15T10:45:47;8.02;;;4.32;;
4078;SDS011;2054;47.858;11.156;2024-01-15T10:48:15;10.80;;;4.55;;
4078;SDS011;2054;47.858;11.156;2024-01-15T10:50:43;11.73;;;5.95;;
4078;SDS011;2054;47.858;11.156;2024-01-15T10:53:10;12.43;;;5.65;;
4078;SDS011;2054;47.858;11.156;2024-01-15T10:55:38;28.40;;;10.32;;
4078;SDS011;2054;47.858;11.156;2024-01-15T10:58:07;10.18;;;6.07;;
4078;SDS011;2054;47.858;11.156;2024-01-15T11:00:35;7.10;;;4.07;;
4078;SDS011;2054;47.858;11.156;2024-01-15T11:03:03;3.00;;;1.98;;
4078;SDS011;2054;47.858;11.156;2024-01-15T11:05:33;5.65;;;2.70;;
4078;SDS011;2054;47.858;11.156;2024-01-15T11:08:01;3.30;;;1.58;;
4078;SDS011;2054;47.858;11.156;2024-01-15T11:13:18;5.95;;;2.10;;
4078;SDS011;2054;47.858;11.156;2024-01-15T11:15:54;5.18;;;2.00;;
4078;SDS011;2054;47.858;11.156;2024-01-15T11:18:21;4.35;;;2.05;;
4078;SDS011;2054;47.858;11.156;2024-01-15T11:23:43;4.05;;;2.15;;
4078;SDS011;2054;47.858;11.156;2024-01-15T11:28:55;3.78;;;1.77;;
4078;SDS011;2054;47.858;11.156;2024-01-15T11:31:26;5.47;;;2.60;;
4078;SDS011;2054;47.858;11.156;2024-01-15T11:33:52;3.47;;;2.00;;
4078;SDS011;2054;47.858;11.156;2024-01-15T11:36:20;4.90;;;2.90;;
4078;SDS011;2054;47.858;11.156;2024-01-15T11:38:47;5.32;;;2.17;;
4078;SDS011;2054;47.858;11.156;2024-01-15T11:41:14;4.63;;;2.67;;
4078;SDS011;2054;47.858;11.156;2024-01-15T11:43:42;4.70;;;2.70;;
4078;SDS011;2054;47.858;11.156;2024-01-15T11:46:11;4.18;;;2.60;;
4078;SDS011;2054;47.858;11.156;2024-01-15T11:48:42;4.90;;;2.28;;
4078;SDS011;2054;47.858;11.156;2024-01-15T11:51:12;3.65;;;2.20;;
4078;SDS011;2054;47.858;11.156;2024-01-15T11:53:43;4.28;;;2.65;;
4078;SDS011;2054;47.858;11.156;2024-01-15T11:56:12;4.65;;;2.88;;
4078;SDS011;2054;47.858;11.156;2024-01-15T11:58:40;6.13;;;2.33;;
4078;SDS011;2054;47.858;11.156;2024-01-15T12:01:08;5.47;;;2.58;;
4078;SDS011;2054;47.858;11.156;2024-01-15T12:03:37;4.43;;;2.40;;
4078;SDS011;2054;47.858;11.156;2024-01-15T12:06:05;3.20;;;2.35;;
4078;SDS011;2054;47.858;11.156;2024-01-15T12:08:32;3.53;;;2.47;;
4078;SDS011;2054;47.858;11.156;2024-01-15T12:11:00;3.75;;;1.77;;
4078;SDS011;2054;47.858;11.156;2024-01-15T12:13:31;3.10;;;1.60;;
4078;SDS011;2054;47.858;11.156;2024-01-15T12:15:58;4.00;;;2.25;;
4078;SDS011;2054;47.858;11.156;2024-01-15T12:18:29;2.92;;;1.63;;
4078;SDS011;2054;47.858;11.156;2024-01-15T12:20:57;4.85;;;2.45;;
4078;SDS011;2054;47.858;11.156;2024-01-15T12:23:25;2.45;;;1.80;;
4078;SDS011;2054;47.858;11.156;2024-01-15T12:25:52;4.10;;;2.33;;
4078;SDS011;2054;47.858;11.156;2024-01-15T12:28:20;3.33;;;1.92;;
4078;SDS011;2054;47.858;11.156;2024-01-15T12:30:47;4.05;;;1.88;;
4078;SDS011;2054;47.858;11.156;2024-01-15T12:33:17;6.10;;;2.45;;
4078;SDS011;2054;47.858;11.156;2024-01-15T12:35:44;3.28;;;1.92;;
4078;SDS011;2054;47.858;11.156;2024-01-15T12:38:14;2.80;;;1.95;;
4078;SDS011;2054;47.858;11.156;2024-01-15T12:40:43;4.10;;;1.95;;
4078;SDS011;2054;47.858;11.156;2024-01-15T12:43:12;3.65;;;2.03;;
4078;SDS011;2054;47.858;11.156;2024-01-15T12:45:40;3.00;;;1.70;;
4078;SDS011;2054;47.858;11.156;2024-01-15T12:48:08;5.80;;;2.33;;
4078;SDS011;2054;47.858;11.156;2024-01-15T12:50:36;4.25;;;2.10;;
4078;SDS011;2054;47.858;11.156;2024-01-15T12:53:03;4.57;;;2.00;;
4078;SDS011;2054;47.858;11.156;2024-01-15T12:55:32;3.20;;;1.65;;
4078;SDS011;2054;47.858;11.156;2024-01-15T12:57:59;3.65;;;1.92;;
4078;SDS011;2054;47.858;11.156;2024-01-15T13:00:26;3.55;;;1.98;;
4078;SDS011;2054;47.858;11.156;2024-01-15T13:02:54;2.72;;;1.45;;
4078;SDS011;2054;47.858;11.156;2024-01-15T13:05:22;3.20;;;1.83;;
4078;SDS011;2054;47.858;11.156;2024-01-15T13:07:49;2.65;;;1.58;;
4078;SDS011;2054;47.858;11.156;2024-01-15T13:10:17;4.45;;;1.70;;
4078;SDS011;2054;47.858;11.156;2024-01-15T13:12:46;2.75;;;1.40;;
4078;SDS011;2054;47.858;11.156;2024-01-15T13:15:13;4.95;;;2.03;;
4078;SDS011;2054;47.858;11.156;2024-01-15T13:17:40;5.03;;;1.95;;
4078;SDS011;2054;47.858;11.156;2024-01-15T13:20:08;3.47;;;1.80;;
4078;SDS011;2054;47.858;11.156;2024-01-15T13:22:36;2.00;;;1.45;;
4078;SDS011;2054;47.858;11.156;2024-01-15T13:25:05;2.90;;;1.55;;
4078;SDS011;2054;47.858;11.156;2024-01-15T13:27:32;1.90;;;1.45;;
4078;SDS011;2054;47.858;11.156;2024-01-15T13:30:03;2.35;;;1.42;;
4078;SDS011;2054;47.858;11.156;2024-01-15T13:32:32;2.28;;;1.50;;
4078;SDS011;2054;47.858;11.156;2024-01-15T13:34:59;1.80;;;1.20;;
4078;SDS011;2054;47.858;11.156;2024-01-15T13:37:27;1.45;;;1.20;;
4078;SDS011;2054;47.858;11.156;2024-01-15T13:39:55;1.90;;;1.20;;
4078;SDS011;2054;47.858;11.156;2024-01-15T13:42:22;2.28;;;1.50;;
4078;SDS011;2054;47.858;11.156;2024-01-15T13:44:52;2.30;;;0.90;;
4078;SDS011;2054;47.858;11.156;2024-01-15T13:47:21;1.42;;;1.00;;
4078;SDS011;2054;47.858;11.156;2024-01-15T13:49:49;1.77;;;1.20;;
4078;SDS011;2054;47.858;11.156;2024-01-15T13:52:16;2.13;;;1.00;;
4078;SDS011;2054;47.858;11.156;2024-01-15T13:54:44;3.03;;;1.20;;
4078;SDS011;2054;47.858;11.156;2024-01-15T13:57:11;2.15;;;1.48;;
4078;SDS011;2054;47.858;11.156;2024-01-15T13:59:38;2.55;;;1.63;;
4078;SDS011;2054;47.858;11.156;2024-01-15T14:02:06;2.03;;;1.27;;
4078;SDS011;2054;47.858;11.156;2024-01-15T14:04:36;2.65;;;1.20;;
4078;SDS011;2054;47.858;11.156;2024-01-15T14:07:05;1.98;;;1.00;;
4078;SDS011;2054;47.858;11.156;2024-01-15T14:09:32;1.65;;;1.25;;
4078;SDS011;2054;47.858;11.156;2024-01-15T14:12:00;2.75;;;1.40;;
4078;SDS011;2054;47.858;11.156;2024-01-15T14:14:27;1.65;;;1.15;;
4078;SDS011;2054;47.858;11.156;2024-01-15T14:16:54;2.45;;;1.30;;
4078;SDS011;2054;47.858;11.156;2024-01-15T14:19:22;1.30;;;1.10;;
4078;SDS011;2054;47.858;11.156;2024-01-15T14:21:50;1.20;;;1.10;;
4078;SDS011;2054;47.858;11.156;2024-01-15T14:24:18;3.72;;;1.30;;
4078;SDS011;2054;47.858;11.156;2024-01-15T14:26:45;1.10;;;1.00;;
4078;SDS011;2054;47.858;11.156;2024-01-15T14:29:12;2.90;;;1.30;;
4078;SDS011;2054;47.858;11.156;2024-01-15T14:31:39;2.03;;;1.20;;
4078;SDS011;2054;47.858;11.156;2024-01-15T14:34:07;3.78;;;1.52;;
4078;SDS011;2054;47.858;11.156;2024-01-15T14:36:34;1.63;;;1.02;;
4078;SDS011;2054;47.858;11.156;2024-01-15T14:39:03;1.70;;;1.20;;
4078;SDS011;2054;47.858;11.156;2024-01-15T14:41:30;2.13;;;1.27;;
4078;SDS011;2054;47.858;11.156;2024-01-15T14:43:57;2.08;;;1.42;;
4078;SDS011;2054;47.858;11.156;2024-01-15T14:46:24;1.17;;;0.98;;
4078;SDS011;2054;47.858;11.156;2024-01-15T14:48:52;1.88;;;1.50;;
4078;SDS011;2054;47.858;11.156;2024-01-15T14:51:20;2.08;;;1.30;;
4078;SDS011;2054;47.858;11.156;2024-01-15T14:53:47;1.20;;;1.00;;
4078;SDS011;2054;47.858;11.156;2024-01-15T14:56:16;3.22;;;1.98;;
4078;SDS011;2054;47.858;11.156;2024-01-15T14:58:43;4.25;;;2.40;;
4078;SDS011;2054;47.858;11.156;2024-01-15T15:01:10;5.57;;;2.80;;
4078;SDS011;2054;47.858;11.156;2024-01-15T15:03:38;2.80;;;1.63;;
4078;SDS011;2054;47.858;11.156;2024-01-15T15:06:05;5.40;;;1.92;;
4078;SDS011;2054;47.858;11.156;2024-01-15T15:08:33;2.25;;;1.90;;
4078;SDS011;2054;47.858;11.156;2024-01-15T15:11:01;3.33;;;1.75;;
4078;SDS011;2054;47.858;11.156;2024-01-15T15:13:30;2.70;;;1.70;;
4078;SDS011;2054;47.858;11.156;2024-01-15T15:15:57;3.45;;;2.17;;
4078;SDS011;2054;47.858;11.156;2024-01-15T15:18:24;2.95;;;1.88;;
4078;SDS011;2054;47.858;11.156;2024-01-15T15:20:52;4.82;;;1.85;;
4078;SDS011;2054;47.858;11.156;2024-01-15T15:23:19;6.53;;;3.40;;
4078;SDS011;2054;47.858;11.156;2024-01-15T15:25:46;3.13;;;1.80;;
4078;SDS011;2054;47.858;11.156;2024-01-15T15:28:13;2.45;;;1.73;;
4078;SDS011;2054;47.858;11.156;2024-01-15T15:30:42;4.00;;;1.83;;
4078;SDS011;2054;47.858;11.156;2024-01-15T15:33:10;3.63;;;1.67;;
4078;SDS011;2054;47.858;11.156;2024-01-15T15:35:37;3.58;;;1.60;;
4078;SDS011;2054;47.858;11.156;2024-01-15T15:38:04;3.25;;;2.00;;
4078;SDS011;2054;47.858;11.156;2024-01-15T15:40:32;2.58;;;1.40;;
4078;SDS011;2054;47.858;11.156;2024-01-15T15:42:59;4.60;;;2.20;;
4078;SDS011;2054;47.858;11.156;2024-01-15T15:45:27;3.80;;;2.10;;
4078;SDS011;2054;47.858;11.156;2024-01-15T15:47:55;3.63;;;1.80;;
4078;SDS011;2054;47.858;11.156;2024-01-15T15:50:23;5.70;;;2.40;;
4078;SDS011;2054;47.858;11.156;2024-01-15T15:52:50;4.50;;;2.60;;
4078;SDS011;2054;47.858;11.156;2024-01-15T15:55:18;4.97;;;2.17;;
4078;SDS011;2054;47.858;11.156;2024-01-15T15:57:45;3.10;;;2.10;;
4078;SDS011;2054;47.858;11.156;2024-01-15T16:00:13;2.97;;;1.85;;
4078;SDS011;2054;47.858;11.156;2024-01-15T16:02:40;4.43;;;2.60;;
4078;SDS011;2054;47.858;11.156;2024-01-15T16:05:09;6.00;;;2.20;;
4078;SDS011;2054;47.858;11.156;2024-01-15T16:07:36;3.85;;;2.30;;
4078;SDS011;2054;47.858;11.156;2024-01-15T16:10:04;4.07;;;2.72;;
4078;SDS011;2054;47.858;11.156;2024-01-15T16:12:32;6.30;;;2.20;;
4078;SDS011;2054;47.858;11.156;2024-01-15T16:15:00;5.50;;;2.53;;
4078;SDS011;2054;47.858;11.156;2024-01-15T16:17:27;5.28;;;2.47;;
4078;SDS011;2054;47.858;11.156;2024-01-15T16:19:56;6.57;;;3.08;;
4078;SDS011;2054;47.858;11.156;2024-01-15T16:22:24;3.88;;;2.28;;
4078;SDS011;2054;47.858;11.156;2024-01-15T16:24:52;3.03;;;2.03;;
4078;SDS011;2054;47.858;11.156;2024-01-15T16:27:19;3.45;;;2.35;;
4078;SDS011;2054;47.858;11.156;2024-01-15T16:29:46;7.38;;;2.55;;
4078;SDS011;2054;47.858;11.156;2024-01-15T16:32:14;4.70;;;2.17;;
4078;SDS011;2054;47.858;11.156;2024-01-15T16:34:41;4.25;;;2.15;;
4078;SDS011;2054;47.858;11.156;2024-01-15T16:37:08;4.47;;;2.28;;
4078;SDS011;2054;47.858;11.156;2024-01-15T16:39:37;4.97;;;2.33;;
4078;SDS011;2054;47.858;11.156;2024-01-15T16:42:05;4.18;;;2.78;;
4078;SDS011;2054;47.858;11.156;2024-01-15T16:44:34;3.30;;;2.22;;
4078;SDS011;2054;47.858;11.156;2024-01-15T16:47:02;8.30;;;3.22;;
4078;SDS011;2054;47.858;11.156;2024-01-15T16:49:29;5.80;;;2.50;;
4078;SDS011;2054;47.858;11.156;2024-01-15T16:51:57;4.88;;;2.40;;
4078;SDS011;2054;47.858;11.156;2024-01-15T16:54:25;4.65;;;2.22;;
4078;SDS011;2054;47.858;11.156;2024-01-15T16:56:53;6.45;;;3.03;;
4078;SDS011;2054;47.858;11.156;2024-01-15T16:59:21;5.20;;;2.90;;
4078;SDS011;2054;47.858;11.156;2024-01-15T17:01:48;5.53;;;3.20;;
4078;SDS011;2054;47.858;11.156;2024-01-15T17:04:15;6.57;;;3.47;;
4078;SDS011;2054;47.858;11.156;2024-01-15T17:06:43;3.10;;;2.25;;
4078;SDS011;2054;47.858;11.156;2024-01-15T17:09:10;6.43;;;2.88;;
4078;SDS011;2054;47.858;11.156;2024-01-15T17:11:38;5.45;;;2.92;;
4078;SDS011;2054;47.858;11.156;2024-01-15T17:14:07;6.30;;;2.88;;
4078;SDS011;2054;47.858;11.156;2024-01-15T17:16:34;5.57;;;2.67;;
4078;SDS011;2054;47.858;11.156;2024-01-15T17:19:02;6.90;;;3.42;;
4078;SDS011;2054;47.858;11.156;2024-01-15T17:21:31;7.68;;;3.67;;
4078;SDS011;2054;47.858;11.156;2024-01-15T17:23:59;5.93;;;2.90;;
4078;SDS011;2054;47.858;11.156;2024-01-15T17:26:27;4.53;;;1.98;;
4078;SDS011;2054;47.858;11.156;2024-01-15T17:28:54;4.13;;;2.47;;
4078;SDS011;2054;47.858;11.156;2024-01-15T17:31:23;8.13;;;3.85;;
4078;SDS011;2054;47.858;11.156;2024-01-15T17:33:52;10.63;;;4.32;;
4078;SDS011;2054;47.858;11.156;2024-01-15T17:36:19;12.57;;;5.15;;
4078;SDS011;2054;47.858;11.156;2024-01-15T17:38:47;6.90;;;3.08;;
4078;SDS011;2054;47.858;11.156;2024-01-15T17:41:14;8.13;;;3.97;;
4078;SDS011;2054;47.858;11.156;2024-01-15T17:43:42;7.05;;;3.28;;
4078;SDS011;2054;47.858;11.156;2024-01-15T17:46:09;5.88;;;3.40;;
4078;SDS011;2054;47.858;11.156;2024-01-15T17:48:38;7.10;;;3.60;;
4078;SDS011;2054;47.858;11.156;2024-01-15T17:51:05;10.50;;;3.70;;
4078;SDS011;2054;47.858;11.156;2024-01-15T17:53:32;8.80;;;3.50;;
4078;SDS011;2054;47.858;11.156;2024-01-15T17:55:59;4.07;;;2.53;;
4078;SDS011;2054;47.858;11.156;2024-01-15T17:58:27;6.22;;;3.75;;
4078;SDS011;2054;47.858;11.156;2024-01-15T18:00:55;11.57;;;4.20;;
4078;SDS011;2054;47.858;11.156;2024-01-15T18:03:23;6.72;;;3.53;;
4078;SDS011;2054;47.858;11.156;2024-01-15T18:05:53;4.65;;;2.67;;
4078;SDS011;2054;47.858;11.156;2024-01-15T18:08:20;4.13;;;2.88;;
4078;SDS011;2054;47.858;11.156;2024-01-15T18:10:47;6.68;;;3.35;;
4078;SDS011;2054;47.858;11.156;2024-01-15T18:13:15;5.30;;;2.53;;
4078;SDS011;2054;47.858;11.156;2024-01-15T18:15:42;8.40;;;3.42;;
4078;SDS011;2054;47.858;11.156;2024-01-15T18:18:09;6.22;;;3.08;;
4078;SDS011;2054;47.858;11.156;2024-01-15T18:20:36;6.72;;;3.58;;
4078;SDS011;2054;47.858;11.156;2024-01-15T18:23:05;4.35;;;2.28;;
4078;SDS011;2054;47.858;11.156;2024-01-15T18:25:32;5.45;;;2.60;;
4078;SDS011;2054;47.858;11.156;2024-01-15T18:28:00;6.68;;;3.15;;
4078;SDS011;2054;47.858;11.156;2024-01-15T18:30:27;5.22;;;2.60;;
4078;SDS011;2054;47.858;11.156;2024-01-15T18:32:56;2.70;;;2.15;;
4078;SDS011;2054;47.858;11.156;2024-01-15T18:35:24;2.50;;;1.67;;
4078;SDS011;2054;47.858;11.156;2024-01-15T18:37:51;2.88;;;1.75;;
4078;SDS011;2054;47.858;11.156;2024-01-15T18:40:20;3.72;;;2.25;;
4078;SDS011;2054;47.858;11.156;2024-01-15T18:42:48;2.45;;;1.70;;
4078;SDS011;2054;47.858;11.156;2024-01-15T18:45:16;3.05;;;1.60;;
4078;SDS011;2054;47.858;11.156;2024-01-15T18:47:43;3.85;;;1.90;;
4078;SDS011;2054;47.858;11.156;2024-01-15T18:50:11;3.00;;;1.85;;
4078;SDS011;2054;47.858;11.156;2024-01-15T18:52:38;2.33;;;1.52;;
4078;SDS011;2054;47.858;11.156;2024-01-15T18:55:05;1.58;;;1.42;;
4078;SDS011;2054;47.858;11.156;2024-01-15T18:57:39;4.53;;;1.83;;